sensor_id;sensor_type;location;lat;lon;timestamp;P1;durP1;ratioP1;P2;durP2;ratioP2
9836;SDS011;4957;51.412;6.724;2022-09-09T00:03:27;5.53;;;1.90;;
9836;SDS011;4957;51.412;6.724;2022-09-09T00:09:04;4.90;;;1.97;;
9836;SDS011;4957;51.412;6.724;2022-09-09T00:11:49;3.20;;;1.73;;
9836;SDS011;4957;51.412;6.724;2022-09-09T00:14:21;4.37;;;1.60;;
9836;SDS011;4957;51.412;6.724;2022-09-09T00:16:55;6.27;;;1.13;;
9836;SDS011;4957;51.412;6.724;2022-09-09T00:19:35;5.63;;;1.73;;
9836;SDS011;4957;51.412;6.724;2022-09-09T00:22:20;1.30;;;1.03;;
9836;SDS011;4957;51.412;6.724;2022-09-09T00:24:53;6.70;;;1.20;;
9836;SDS011;4957;51.412;6.724;2022-09-09T00:30:13;2.37;;;1.20;;
9836;SDS011;4957;51.412;6.724;2022-09-09T00:32:41;1.07;;;0.90;;
9836;SDS011;4957;51.412;6.724;2022-09-09T00:35:22;1.60;;;1.03;;
9836;SDS011;4957;51.412;6.724;2022-09-09T00:38:15;2.00;;;0.97;;
9836;SDS011;4957;51.412;6.724;2022-09-09T00:40:46;2.80;;;1.17;;
9836;SDS011;4957;51.412;6.724;2022-09-09T00:43:29;3.37;;;1.00;;
9836;SDS011;4957;51.412;6.724;2022-09-09T00:46:07;4.03;;;1.00;;
9836;SDS011;4957;51.412;6.724;2022-09-09T00:54:01;1.10;;;0.80;;
9836;SDS011;4957;51.412;6.724;2022-09-09T00:56:57;3.37;;;1.10;;
9836;SDS011;4957;51.412;6.724;2022-09-09T00:59:42;2.40;;;1.00;;
9836;SDS011;4957;51.412;6.724;2022-09-09T01:02:25;2.40;;;1.10;;
9836;SDS011;4957;51.412;6.724;2022-09-09T01:05:11;3.53;;;1.20;;
9836;SDS011;4957;51.412;6.724;2022-09-09T01:07:44;2.77;;;0.80;;
9836;SDS011;4957;51.412;6.724;2022-09-09T01:10:26;3.80;;;1.30;;
9836;SDS011;4957;51.412;6.724;2022-09-09T01:13:04;2.63;;;1.10;;
9836;SDS011;4957;51.412;6.724;2022-09-09T01:15:38;2.33;;;1.50;;
9836;SDS011;4957;51.412;6.724;2022-09-09T01:18:08;4.40;;;1.53;;
9836;SDS011;4957;51.412;6.724;2022-09-09T01:28:33;3.27;;;1.57;;
9836;SDS011;4957;51.412;6.724;2022-09-09T01:31:02;3.97;;;2.10;;
9836;SDS011;4957;51.412;6.724;2022-09-09T01:33:30;2.63;;;1.50;;
9836;SDS011;4957;51.412;6.724;2022-09-09T01:36:00;3.67;;;1.80;;
9836;SDS011;4957;51.412;6.724;2022-09-09T01:38:33;4.07;;;1.77;;
9836;SDS011;4957;51.412;6.724;2022-09-09T01:41:01;2.33;;;1.30;;
9836;SDS011;4957;51.412;6.724;2022-09-09T01:43:27;4.60;;;1.70;;
9836;SDS011;4957;51.412;6.724;2022-09-09T01:45:54;3.20;;;1.47;;
9836;SDS011;4957;51.412;6.724;2022-09-09T01:48:22;3.80;;;1.90;;
9836;SDS011;4957;51.412;6.724;2022-09-09T01:50:49;4.70;;;1.63;;
9836;SDS011;4957;51.412;6.724;2022-09-09T01:53:16;2.33;;;1.40;;
9836;SDS011;4957;51.412;6.724;2022-09-09T01:55:45;7.93;;;1.90;;
9836;SDS011;4957;51.412;6.724;2022-09-09T01:58:29;5.37;;;1.47;;
9836;SDS011;4957;51.412;6.724;2022-09-09T02:01:02;2.93;;;1.87;;
9836;SDS011;4957;51.412;6.724;2022-09-09T02:03:34;3.90;;;1.80;;
9836;SDS011;4957;51.412;6.724;2022-09-09T02:11:16;9.50;;;3.30;;
9836;SDS011;4957;51.412;6.724;2022-09-09T02:13:48;8.40;;;4.77;;
9836;SDS011;4957;51.412;6.724;2022-09-09T02:16:23;10.77;;;5.13;;
9836;SDS011;4957;51.412;6.724;2022-09-09T02:21:26;14.80;;;6.77;;
9836;SDS011;4957;51.412;6.724;2022-09-09T02:23:57;13.30;;;7.00;;
9836;SDS011;4957;51.412;6.724;2022-09-09T02:26:29;19.83;;;6.97;;
9836;SDS011;4957;51.412;6.724;2022-09-09T02:28:57;13.07;;;6.33;;
9836;SDS011;4957;51.412;6.724;2022-09-09T02:31:26;12.17;;;5.90;;
9836;SDS011;4957;51.412;6.724;2022-09-09T02:33:57;5.27;;;3.97;;
9836;SDS011;4957;51.412;6.724;2022-09-09T02:36:26;7.90;;;4.60;;
9836;SDS011;4957;51.412;6.724;2022-09-09T02:38:56;10.63;;;4.53;;
9836;SDS011;4957;51.412;6.724;2022-09-09T02:41:35;7.47;;;3.13;;
9836;SDS011;4957;51.412;6.724;2022-09-09T02:44:17;6.87;;;3.20;;
9836;SDS011;4957;51.412;6.724;2022-09-09T02:49:25;8.77;;;3.40;;
9836;SDS011;4957;51.412;6.724;2022-09-09T02:52:01;7.63;;;2.43;;
9836;SDS011;4957;51.412;6.724;2022-09-09T02:54:34;5.43;;;2.10;;
9836;SDS011;4957;51.412;6.724;2022-09-09T02:59:37;6.30;;;2.27;;
9836;SDS011;4957;51.412;6.724;2022-09-09T03:02:03;6.10;;;2.40;;
9836;SDS011;4957;51.412;6.724;2022-09-09T03:04:30;6.43;;;3.30;;
9836;SDS011;4957;51.412;6.724;2022-09-09T03:06:56;11.57;;;4.73;;
9836;SDS011;4957;51.412;6.724;2022-09-09T03:09:23;8.97;;;4.10;;
9836;SDS011;4957;51.412;6.724;2022-09-09T03:11:49;14.70;;;4.60;;
9836;SDS011;4957;51.412;6.724;2022-09-09T03:14:15;14.53;;;4.90;;
9836;SDS011;4957;51.412;6.724;2022-09-09T03:16:41;13.27;;;5.13;;
9836;SDS011;4957;51.412;6.724;2022-09-09T03:19:08;9.20;;;4.27;;
9836;SDS011;4957;51.412;6.724;2022-09-09T03:21:34;8.87;;;4.50;;
9836;SDS011;4957;51.412;6.724;2022-09-09T03:24:00;8.43;;;4.00;;
9836;SDS011;4957;51.412;6.724;2022-09-09T03:26:28;13.33;;;4.10;;
9836;SDS011;4957;51.412;6.724;2022-09-09T03:28:55;9.27;;;4.00;;
9836;SDS011;4957;51.412;6.724;2022-09-09T03:31:21;9.87;;;4.07;;
9836;SDS011;4957;51.412;6.724;2022-09-09T03:33:46;8.63;;;3.63;;
9836;SDS011;4957;51.412;6.724;2022-09-09T03:36:13;12.80;;;4.57;;
9836;SDS011;4957;51.412;6.724;2022-09-09T03:38:39;11.20;;;5.57;;
9836;SDS011;4957;51.412;6.724;2022-09-09T03:41:05;11.83;;;4.90;;
9836;SDS011;4957;51.412;6.724;2022-09-09T03:43:30;16.90;;;4.93;;
9836;SDS011;4957;51.412;6.724;2022-09-09T03:45:56;12.77;;;4.63;;
9836;SDS011;4957;51.412;6.724;2022-09-09T03:48:22;14.13;;;4.50;;
9836;SDS011;4957;51.412;6.724;2022-09-09T03:50:50;7.47;;;3.87;;
9836;SDS011;4957;51.412;6.724;2022-09-09T03:53:18;12.03;;;3.77;;
9836;SDS011;4957;51.412;6.724;2022-09-09T03:55:49;16.07;;;4.43;;
9836;SDS011;4957;51.412;6.724;2022-09-09T03:58:18;12.57;;;3.97;;
9836;SDS011;4957;51.412;6.724;2022-09-09T04:00:53;8.47;;;4.10;;
9836;SDS011;4957;51.412;6.724;2022-09-09T04:03:23;13.13;;;4.73;;
9836;SDS011;4957;51.412;6.724;2022-09-09T04:05:53;12.97;;;4.37;;
9836;SDS011;4957;51.412;6.724;2022-09-09T04:08:20;13.47;;;5.03;;
9836;SDS011;4957;51.412;6.724;2022-09-09T04:10:49;12.37;;;5.33;;
9836;SDS011;4957;51.412;6.724;2022-09-09T04:13:15;16.23;;;5.50;;
9836;SDS011;4957;51.412;6.724;2022-09-09T04:15:43;13.20;;;5.57;;
9836;SDS011;4957;51.412;6.724;2022-09-09T04:18:09;8.87;;;4.50;;
9836;SDS011;4957;51.412;6.724;2022-09-09T04:20:34;17.07;;;6.33;;
9836;SDS011;4957;51.412;6.724;2022-09-09T04:23:00;14.33;;;6.27;;
9836;SDS011;4957;51.412;6.724;2022-09-09T04:25:26;16.47;;;7.20;;
9836;SDS011;4957;51.412;6.724;2022-09-09T04:27:55;23.73;;;6.87;;
9836;SDS011;4957;51.412;6.724;2022-09-09T04:30:22;24.93;;;6.33;;
9836;SDS011;4957;51.412;6.724;2022-09-09T04:32:48;13.03;;;6.67;;
9836;SDS011;4957;51.412;6.724;2022-09-09T04:35:14;15.40;;;4.90;;
9836;SDS011;4957;51.412;6.724;2022-09-09T04:37:40;12.87;;;4.70;;
9836;SDS011;4957;51.412;6.724;2022-09-09T04:40:06;11.07;;;4.77;;
9836;SDS011;4957;51.412;6.724;2022-09-09T04:42:38;14.40;;;5.10;;
9836;SDS011;4957;51.412;6.724;2022-09-09T04:45:04;13.93;;;4.27;;
9836;SDS011;4957;51.412;6.724;2022-09-09T04:47:32;13.60;;;4.00;;
9836;SDS011;4957;51.412;6.724;2022-09-09T04:49:59;8.70;;;3.30;;
9836;SDS011;4957;51.412;6.724;2022-09-09T04:52:25;15.83;;;4.20;;
9836;SDS011;4957;51.412;6.724;2022-09-09T04:54:51;10.70;;;3.50;;
9836;SDS011;4957;51.412;6.724;2022-09-09T04:57:19;15.63;;;3.37;;
9836;SDS011;4957;51.412;6.724;2022-09-09T04:59:45;11.20;;;5.33;;
9836;SDS011;4957;51.412;6.724;2022-09-09T05:02:10;13.77;;;6.10;;
9836;SDS011;4957;51.412;6.724;2022-09-09T05:04:36;23.20;;;8.27;;
9836;SDS011;4957;51.412;6.724;2022-09-09T05:07:02;19.63;;;7.93;;
9836;SDS011;4957;51.412;6.724;2022-09-09T05:09:28;19.10;;;7.57;;
9836;SDS011;4957;51.412;6.724;2022-09-09T05:11:55;16.97;;;6.63;;
9836;SDS011;4957;51.412;6.724;2022-09-09T05:14:20;13.23;;;5.83;;
9836;SDS011;4957;51.412;6.724;2022-09-09T05:16:47;12.03;;;5.50;;
9836;SDS011;4957;51.412;6.724;2022-09-09T05:19:14;16.73;;;5.57;;
9836;SDS011;4957;51.412;6.724;2022-09-09T05:21:40;13.80;;;4.83;;
9836;SDS011;4957;51.412;6.724;2022-09-09T05:24:06;11.17;;;4.67;;
9836;SDS011;4957;51.412;6.724;2022-09-09T05:26:32;13.40;;;4.70;;
9836;SDS011;4957;51.412;6.724;2022-09-09T05:28:58;14.43;;;5.30;;
9836;SDS011;4957;51.412;6.724;2022-09-09T05:31:25;18.80;;;6.17;;
9836;SDS011;4957;51.412;6.724;2022-09-09T05:33:53;18.00;;;5.90;;
9836;SDS011;4957;51.412;6.724;2022-09-09T05:36:19;16.13;;;5.53;;
9836;SDS011;4957;51.412;6.724;2022-09-09T05:38:46;22.97;;;6.43;;
9836;SDS011;4957;51.412;6.724;2022-09-09T05:41:12;19.93;;;6.17;;
9836;SDS011;4957;51.412;6.724;2022-09-09T05:43:40;18.30;;;6.27;;
9836;SDS011;4957;51.412;6.724;2022-09-09T05:46:13;13.60;;;5.97;;
9836;SDS011;4957;51.412;6.724;2022-09-09T05:48:50;12.67;;;5.60;;
9836;SDS011;4957;51.412;6.724;2022-09-09T05:51:17;15.67;;;6.33;;
9836;SDS011;4957;51.412;6.724;2022-09-09T05:53:46;11.53;;;6.43;;
9836;SDS011;4957;51.412;6.724;2022-09-09T05:56:16;20.70;;;7.10;;
9836;SDS011;4957;51.412;6.724;2022-09-09T05:58:43;17.77;;;5.97;;
9836;SDS011;4957;51.412;6.724;2022-09-09T06:01:22;12.10;;;4.70;;
9836;SDS011;4957;51.412;6.724;2022-09-09T06:03:50;19.07;;;5.57;;
9836;SDS011;4957;51.412;6.724;2022-09-09T06:06:18;12.17;;;4.27;;
9836;SDS011;4957;51.412;6.724;2022-09-09T06:08:45;12.27;;;4.50;;
9836;SDS011;4957;51.412;6.724;2022-09-09T06:13:42;19.10;;;5.03;;
9836;SDS011;4957;51.412;6.724;2022-09-09T06:16:08;23.27;;;6.33;;
9836;SDS011;4957;51.412;6.724;2022-09-09T06:18:36;20.33;;;8.57;;
9836;SDS011;4957;51.412;6.724;2022-09-09T06:21:06;22.63;;;9.27;;
9836;SDS011;4957;51.412;6.724;2022-09-09T06:23:36;25.40;;;8.67;;
9836;SDS011;4957;51.412;6.724;2022-09-09T06:26:03;18.20;;;7.97;;
9836;SDS011;4957;51.412;6.724;2022-09-09T06:28:34;18.17;;;6.97;;
9836;SDS011;4957;51.412;6.724;2022-09-09T06:31:02;23.20;;;6.27;;
9836;SDS011;4957;51.412;6.724;2022-09-09T06:33:32;21.37;;;6.47;;
9836;SDS011;4957;51.412;6.724;2022-09-09T06:36:07;20.97;;;6.07;;
9836;SDS011;4957;51.412;6.724;2022-09-09T06:38:35;13.47;;;4.50;;
9836;SDS011;4957;51.412;6.724;2022-09-09T06:41:01;17.60;;;4.50;;
9836;SDS011;4957;51.412;6.724;2022-09-09T06:43:27;13.07;;;4.37;;
9836;SDS011;4957;51.412;6.724;2022-09-09T06:45:58;14.63;;;5.53;;
9836;SDS011;4957;51.412;6.724;2022-09-09T06:48:25;19.07;;;7.67;;
9836;SDS011;4957;51.412;6.724;2022-09-09T06:51:01;18.60;;;7.53;;
9836;SDS011;4957;51.412;6.724;2022-09-09T06:53:28;19.13;;;7.30;;
9836;SDS011;4957;51.412;6.724;2022-09-09T06:55:54;16.63;;;7.10;;
9836;SDS011;4957;51.412;6.724;2022-09-09T06:58:20;15.27;;;6.03;;
9836;SDS011;4957;51.412;6.724;2022-09-09T07:00:49;14.10;;;5.53;;
9836;SDS011;4957;51.412;6.724;2022-09-09T07:03:14;15.10;;;4.90;;
9836;SDS011;4957;51.412;6.724;2022-09-09T07:05:40;15.37;;;4.60;;
9836;SDS011;4957;51.412;6.724;2022-09-09T07:08:06;12.50;;;4.80;;
9836;SDS011;4957;51.412;6.724;2022-09-09T07:10:31;9.80;;;4.10;;
9836;SDS011;4957;51.412;6.724;2022-09-09T07:12:59;18.70;;;4.03;;
9836;SDS011;4957;51.412;6.724;2022-09-09T07:15:25;11.17;;;3.30;;
9836;SDS011;4957;51.412;6.724;2022-09-09T07:17:51;9.20;;;2.13;;
9836;SDS011;4957;51.412;6.724;2022-09-09T07:20:18;10.73;;;2.20;;
9836;SDS011;4957;51.412;6.724;2022-09-09T07:22:45;8.67;;;2.70;;
9836;SDS011;4957;51.412;6.724;2022-09-09T07:25:11;8.17;;;2.60;;
9836;SDS011;4957;51.412;6.724;2022-09-09T07:27:36;6.77;;;2.30;;
9836;SDS011;4957;51.412;6.724;2022-09-09T07:30:02;11.20;;;2.63;;
9836;SDS011;4957;51.412;6.724;2022-09-09T07:32:29;12.87;;;3.13;;
9836;SDS011;4957;51.412;6.724;2022-09-09T07:34:55;12.93;;;2.90;;
9836;SDS011;4957;51.412;6.724;2022-09-09T07:37:23;7.87;;;2.23;;
9836;SDS011;4957;51.412;6.724;2022-09-09T07:39:49;4.43;;;2.00;;
9836;SDS011;4957;51.412;6.724;2022-09-09T07:42:15;5.47;;;2.10;;
9836;SDS011;4957;51.412;6.724;2022-09-09T07:44:41;5.57;;;1.83;;
9836;SDS011;4957;51.412;6.724;2022-09-09T07:47:07;7.10;;;1.90;;
9836;SDS011;4957;51.412;6.724;2022-09-09T07:49:33;5.27;;;1.83;;
9836;SDS011;4957;51.412;6.724;2022-09-09T07:51:59;6.47;;;1.70;;
9836;SDS011;4957;51.412;6.724;2022-09-09T07:54:24;6.67;;;1.50;;
9836;SDS011;4957;51.412;6.724;2022-09-09T07:56:51;12.63;;;1.70;;
9836;SDS011;4957;51.412;6.724;2022-09-09T07:59:17;6.40;;;1.40;;
9836;SDS011;4957;51.412;6.724;2022-09-09T08:01:47;5.83;;;1.40;;
9836;SDS011;4957;51.412;6.724;2022-09-09T08:04:18;2.93;;;1.00;;
9836;SDS011;4957;51.412;6.724;2022-09-09T08:06:47;11.63;;;1.50;;
9836;SDS011;4957;51.412;6.724;2022-09-09T08:09:18;7.10;;;1.70;;
9836;SDS011;4957;51.412;6.724;2022-09-09T08:11:44;2.30;;;1.33;;
9836;SDS011;4957;51.412;6.724;2022-09-09T08:14:11;3.33;;;1.30;;
9836;SDS011;4957;51.412;6.724;2022-09-09T08:16:39;7.50;;;2.40;;
9836;SDS011;4957;51.412;6.724;2022-09-09T08:19:06;6.07;;;2.47;;
9836;SDS011;4957;51.412;6.724;2022-09-09T08:21:33;7.47;;;2.27;;
9836;SDS011;4957;51.412;6.724;2022-09-09T08:24:02;8.70;;;2.57;;
9836;SDS011;4957;51.412;6.724;2022-09-09T08:26:34;9.07;;;2.10;;
9836;SDS011;4957;51.412;6.724;2022-09-09T08:29:02;2.93;;;1.80;;
9836;SDS011;4957;51.412;6.724;2022-09-09T08:31:31;5.93;;;2.33;;
9836;SDS011;4957;51.412;6.724;2022-09-09T08:34:04;4.93;;;1.67;;
9836;SDS011;4957;51.412;6.724;2022-09-09T08:36:32;4.97;;;1.70;;
9836;SDS011;4957;51.412;6.724;2022-09-09T08:39:01;3.63;;;1.43;;
9836;SDS011;4957;51.412;6.724;2022-09-09T08:55:53;4.87;;;2.10;;
9836;SDS011;4957;51.412;6.724;2022-09-09T08:58:30;7.10;;;2.33;;
9836;SDS011;4957;51.412;6.724;2022-09-09T09:03:53;7.37;;;1.27;;
9836;SDS011;4957;51.412;6.724;2022-09-09T09:09:05;5.93;;;1.30;;
9836;SDS011;4957;51.412;6.724;2022-09-09T09:11:34;5.70;;;1.50;;
9836;SDS011;4957;51.412;6.724;2022-09-09T09:14:31;4.07;;;1.20;;
9836;SDS011;4957;51.412;6.724;2022-09-09T09:17:01;5.03;;;1.20;;
9836;SDS011;4957;51.412;6.724;2022-09-09T09:19:40;6.87;;;1.50;;
9836;SDS011;4957;51.412;6.724;2022-09-09T09:27:33;4.17;;;0.93;;
9836;SDS011;4957;51.412;6.724;2022-09-09T09:32:44;5.27;;;1.20;;
9836;SDS011;4957;51.412;6.724;2022-09-09T09:35:24;2.93;;;1.03;;
9836;SDS011;4957;51.412;6.724;2022-09-09T09:37:50;4.40;;;1.70;;
9836;SDS011;4957;51.412;6.724;2022-09-09T09:40:19;3.87;;;1.37;;
9836;SDS011;4957;51.412;6.724;2022-09-09T09:42:53;2.83;;;1.00;;
9836;SDS011;4957;51.412;6.724;2022-09-09T09:45:43;9.00;;;1.50;;
9836;SDS011;4957;51.412;6.724;2022-09-09T09:48:10;4.87;;;1.23;;
9836;SDS011;4957;51.412;6.724;2022-09-09T09:51:19;4.23;;;1.20;;
9836;SDS011;4957;51.412;6.724;2022-09-09T09:53:32;4.83;;;1.13;;
9836;SDS011;4957;51.412;6.724;2022-09-09T09:56:02;4.80;;;1.30;;
9836;SDS011;4957;51.412;6.724;2022-09-09T09:58:30;6.37;;;1.10;;
9836;SDS011;4957;51.412;6.724;2022-09-09T10:00:59;6.13;;;1.60;;
9836;SDS011;4957;51.412;6.724;2022-09-09T10:03:31;5.53;;;1.57;;
9836;SDS011;4957;51.412;6.724;2022-09-09T10:06:04;2.93;;;1.10;;
9836;SDS011;4957;51.412;6.724;2022-09-09T10:08:33;2.73;;;1.10;;
9836;SDS011;4957;51.412;6.724;2022-09-09T10:13:51;4.30;;;1.10;;
9836;SDS011;4957;51.412;6.724;2022-09-09T10:19:04;4.93;;;1.47;;
9836;SDS011;4957;51.412;6.724;2022-09-09T10:35:14;2.10;;;0.90;;
9836;SDS011;4957;51.412;6.724;2022-09-09T10:37:54;3.40;;;0.90;;
9836;SDS011;4957;51.412;6.724;2022-09-09T10:46:23;4.23;;;1.50;;
9836;SDS011;4957;51.412;6.724;2022-09-09T10:52:15;2.37;;;0.93;;
9836;SDS011;4957;51.412;6.724;2022-09-09T11:00:20;4.50;;;0.90;;
9836;SDS011;4957;51.412;6.724;2022-09-09T11:02:52;2.93;;;1.07;;
9836;SDS011;4957;51.412;6.724;2022-09-09T11:05:45;4.83;;;1.30;;
9836;SDS011;4957;51.412;6.724;2022-09-09T11:08:21;5.03;;;0.90;;
9836;SDS011;4957;51.412;6.724;2022-09-09T11:19:30;4.33;;;1.07;;
9836;SDS011;4957;51.412;6.724;2022-09-09T11:21:51;6.27;;;0.93;;
9836;SDS011;4957;51.412;6.724;2022-09-09T11:27:35;3.87;;;0.90;;
9836;SDS011;4957;51.412;6.724;2022-09-09T11:38:07;2.50;;;0.80;;
9836;SDS011;4957;51.412;6.724;2022-09-09T11:40:53;1.93;;;0.90;;
9836;SDS011;4957;51.412;6.724;2022-09-09T11:43:32;2.33;;;0.83;;
9836;SDS011;4957;51.412;6.724;2022-09-09T11:46:06;2.73;;;0.97;;
9836;SDS011;4957;51.412;6.724;2022-09-09T11:48:37;3.13;;;1.13;;
9836;SDS011;4957;51.412;6.724;2022-09-09T11:51:12;2.73;;;0.97;;
9836;SDS011;4957;51.412;6.724;2022-09-09T11:58:56;6.73;;;1.80;;
9836;SDS011;4957;51.412;6.724;2022-09-09T12:01:44;5.33;;;1.57;;
9836;SDS011;4957;51.412;6.724;2022-09-09T12:04:21;4.07;;;1.23;;
9836;SDS011;4957;51.412;6.724;2022-09-09T12:06:56;5.03;;;0.80;;
9836;SDS011;4957;51.412;6.724;2022-09-09T12:09:25;2.53;;;0.77;;
9836;SDS011;4957;51.412;6.724;2022-09-09T12:12:17;2.97;;;1.00;;
9836;SDS011;4957;51.412;6.724;2022-09-09T12:15:00;4.70;;;0.93;;
9836;SDS011;4957;51.412;6.724;2022-09-09T12:17:37;2.13;;;1.10;;
9836;SDS011;4957;51.412;6.724;2022-09-09T12:20:13;3.50;;;1.00;;
9836;SDS011;4957;51.412;6.724;2022-09-09T12:31:17;2.33;;;1.10;;
9836;SDS011;4957;51.412;6.724;2022-09-09T12:34:02;2.70;;;1.00;;
9836;SDS011;4957;51.412;6.724;2022-09-09T12:36:40;3.10;;;0.90;;
9836;SDS011;4957;51.412;6.724;2022-09-09T12:39:10;2.27;;;0.73;;
9836;SDS011;4957;51.412;6.724;2022-09-09T12:41:56;4.77;;;2.03;;
9836;SDS011;4957;51.412;6.724;2022-09-09T12:44:25;3.77;;;2.00;;
9836;SDS011;4957;51.412;6.724;2022-09-09T12:46:55;1.33;;;1.00;;
9836;SDS011;4957;51.412;6.724;2022-09-09T12:49:31;4.43;;;1.87;;
9836;SDS011;4957;51.412;6.724;2022-09-09T12:52:05;5.90;;;1.73;;
9836;SDS011;4957;51.412;6.724;2022-09-09T12:54:44;4.23;;;0.90;;
9836;SDS011;4957;51.412;6.724;2022-09-09T12:57:12;3.07;;;1.10;;
9836;SDS011;4957;51.412;6.724;2022-09-09T12:59:40;5.00;;;1.07;;
9836;SDS011;4957;51.412;6.724;2022-09-09T13:04:51;9.97;;;1.50;;
9836;SDS011;4957;51.412;6.724;2022-09-09T13:07:19;2.73;;;1.20;;
9836;SDS011;4957;51.412;6.724;2022-09-09T13:09:47;4.27;;;1.23;;
9836;SDS011;4957;51.412;6.724;2022-09-09T13:12:21;3.47;;;1.17;;
9836;SDS011;4957;51.412;6.724;2022-09-09T13:14:53;2.60;;;1.00;;
9836;SDS011;4957;51.412;6.724;2022-09-09T13:17:24;5.30;;;1.50;;
9836;SDS011;4957;51.412;6.724;2022-09-09T13:19:53;3.23;;;1.13;;
9836;SDS011;4957;51.412;6.724;2022-09-09T13:22:21;3.77;;;1.27;;
9836;SDS011;4957;51.412;6.724;2022-09-09T13:27:36;3.37;;;0.90;;
9836;SDS011;4957;51.412;6.724;2022-09-09T13:30:26;4.63;;;1.13;;
9836;SDS011;4957;51.412;6.724;2022-09-09T13:33:06;2.93;;;1.27;;
9836;SDS011;4957;51.412;6.724;2022-09-09T13:38:32;3.20;;;1.40;;
9836;SDS011;4957;51.412;6.724;2022-09-09T13:41:06;6.13;;;2.20;;
9836;SDS011;4957;51.412;6.724;2022-09-09T13:43:34;3.50;;;1.80;;
9836;SDS011;4957;51.412;6.724;2022-09-09T13:49:01;3.73;;;1.20;;
9836;SDS011;4957;51.412;6.724;2022-09-09T13:51:35;4.03;;;1.57;;
9836;SDS011;4957;51.412;6.724;2022-09-09T13:54:03;4.80;;;1.20;;
9836;SDS011;4957;51.412;6.724;2022-09-09T13:56:31;4.87;;;1.13;;
9836;SDS011;4957;51.412;6.724;2022-09-09T13:58:57;2.50;;;0.90;;
9836;SDS011;4957;51.412;6.724;2022-09-09T14:01:23;3.30;;;1.37;;
9836;SDS011;4957;51.412;6.724;2022-09-09T14:03:49;3.73;;;1.13;;
9836;SDS011;4957;51.412;6.724;2022-09-09T14:06:15;4.13;;;1.50;;
9836;SDS011;4957;51.412;6.724;2022-09-09T14:08:42;2.53;;;1.10;;
9836;SDS011;4957;51.412;6.724;2022-09-09T14:11:09;5.50;;;1.80;;
9836;SDS011;4957;51.412;6.724;2022-09-09T14:13:37;2.37;;;1.10;;
9836;SDS011;4957;51.412;6.724;2022-09-09T14:16:03;2.23;;;1.20;;
9836;SDS011;4957;51.412;6.724;2022-09-09T14:18:28;2.70;;;1.20;;
9836;SDS011;4957;51.412;6.724;2022-09-09T14:20:54;3.57;;;1.20;;
9836;SDS011;4957;51.412;6.724;2022-09-09T14:23:20;6.47;;;1.27;;
9836;SDS011;4957;51.412;6.724;2022-09-09T14:25:47;2.53;;;1.20;;
9836;SDS011;4957;51.412;6.724;2022-09-09T14:28:14;1.17;;;0.90;;
9836;SDS011;4957;51.412;6.724;2022-09-09T14:30:40;1.70;;;0.67;;
9836;SDS011;4957;51.412;6.724;2022-09-09T14:33:08;5.07;;;1.60;;
9836;SDS011;4957;51.412;6.724;2022-09-09T14:35:36;8.67;;;0.80;;
9836;SDS011;4957;51.412;6.724;2022-09-09T14:38:03;21.93;;;2.00;;
9836;SDS011;4957;51.412;6.724;2022-09-09T14:40:29;3.53;;;0.70;;
9836;SDS011;4957;51.412;6.724;2022-09-09T14:42:55;3.40;;;0.80;;
9836;SDS011;4957;51.412;6.724;2022-09-09T14:45:22;3.00;;;1.00;;
9836;SDS011;4957;51.412;6.724;2022-09-09T14:47:50;3.70;;;0.67;;
9836;SDS011;4957;51.412;6.724;2022-09-09T14:50:16;2.50;;;0.77;;
9836;SDS011;4957;51.412;6.724;2022-09-09T14:52:43;1.67;;;0.97;;
9836;SDS011;4957;51.412;6.724;2022-09-09T14:55:09;2.83;;;0.90;;
9836;SDS011;4957;51.412;6.724;2022-09-09T14:57:34;1.70;;;1.03;;
9836;SDS011;4957;51.412;6.724;2022-09-09T15:00:01;2.17;;;0.90;;
9836;SDS011;4957;51.412;6.724;2022-09-09T15:02:31;7.40;;;0.80;;
9836;SDS011;4957;51.412;6.724;2022-09-09T15:04:56;5.67;;;1.23;;
9836;SDS011;4957;51.412;6.724;2022-09-09T15:07:23;13.47;;;1.50;;
9836;SDS011;4957;51.412;6.724;2022-09-09T15:09:49;19.50;;;1.67;;
9836;SDS011;4957;51.412;6.724;2022-09-09T15:12:15;11.63;;;1.30;;
9836;SDS011;4957;51.412;6.724;2022-09-09T15:14:43;4.57;;;1.60;;
9836;SDS011;4957;51.412;6.724;2022-09-09T15:17:09;2.33;;;0.87;;
9836;SDS011;4957;51.412;6.724;2022-09-09T15:19:35;2.80;;;1.13;;
9836;SDS011;4957;51.412;6.724;2022-09-09T15:22:02;3.57;;;1.30;;
9836;SDS011;4957;51.412;6.724;2022-09-09T15:24:28;4.20;;;1.30;;
9836;SDS011;4957;51.412;6.724;2022-09-09T15:26:53;1.73;;;1.27;;
9836;SDS011;4957;51.412;6.724;2022-09-09T15:29:19;2.57;;;0.90;;
9836;SDS011;4957;51.412;6.724;2022-09-09T15:31:45;1.47;;;0.80;;
9836;SDS011;4957;51.412;6.724;2022-09-09T15:34:11;3.30;;;0.83;;
9836;SDS011;4957;51.412;6.724;2022-09-09T15:36:45;2.93;;;1.00;;
9836;SDS011;4957;51.412;6.724;2022-09-09T15:39:12;4.17;;;1.20;;
9836;SDS011;4957;51.412;6.724;2022-09-09T15:41:43;5.30;;;1.80;;
9836;SDS011;4957;51.412;6.724;2022-09-09T15:44:11;3.77;;;2.10;;
9836;SDS011;4957;51.412;6.724;2022-09-09T15:46:38;4.07;;;1.60;;
9836;SDS011;4957;51.412;6.724;2022-09-09T15:49:20;7.40;;;2.00;;
9836;SDS011;4957;51.412;6.724;2022-09-09T15:51:54;4.23;;;1.60;;
9836;SDS011;4957;51.412;6.724;2022-09-09T15:54:22;3.10;;;1.20;;
9836;SDS011;4957;51.412;6.724;2022-09-09T15:56:50;3.67;;;1.23;;
9836;SDS011;4957;51.412;6.724;2022-09-09T15:59:20;1.83;;;1.00;;
9836;SDS011;4957;51.412;6.724;2022-09-09T16:01:50;1.93;;;1.10;;
9836;SDS011;4957;51.412;6.724;2022-09-09T16:04:19;2.90;;;1.00;;
9836;SDS011;4957;51.412;6.724;2022-09-09T16:07:06;2.50;;;0.83;;
9836;SDS011;4957;51.412;6.724;2022-09-09T16:09:32;3.30;;;0.80;;
9836;SDS011;4957;51.412;6.724;2022-09-09T16:12:00;2.97;;;1.10;;
9836;SDS011;4957;51.412;6.724;2022-09-09T16:14:27;0.57;;;0.57;;
9836;SDS011;4957;51.412;6.724;2022-09-09T16:16:53;0.87;;;0.80;;
9836;SDS011;4957;51.412;6.724;2022-09-09T16:19:19;2.53;;;1.13;;
9836;SDS011;4957;51.412;6.724;2022-09-09T16:21:46;2.07;;;1.10;;
9836;SDS011;4957;51.412;6.724;2022-09-09T16:24:15;1.67;;;1.10;;
9836;SDS011;4957;51.412;6.724;2022-09-09T16:26:46;2.57;;;0.87;;
9836;SDS011;4957;51.412;6.724;2022-09-09T16:29:14;4.63;;;1.13;;
9836;SDS011;4957;51.412;6.724;2022-09-09T16:31:40;3.47;;;1.20;;
9836;SDS011;4957;51.412;6.724;2022-09-09T16:34:07;1.27;;;0.80;;
9836;SDS011;4957;51.412;6.724;2022-09-09T16:36:35;3.80;;;1.20;;
9836;SDS011;4957;51.412;6.724;2022-09-09T16:39:03;1.80;;;1.03;;
9836;SDS011;4957;51.412;6.724;2022-09-09T16:41:31;5.73;;;1.20;;
9836;SDS011;4957;51.412;6.724;2022-09-09T16:43:59;3.00;;;1.13;;
9836;SDS011;4957;51.412;6.724;2022-09-09T16:46:27;2.17;;;1.30;;
9836;SDS011;4957;51.412;6.724;2022-09-09T16:48:55;2.90;;;1.20;;
9836;SDS011;4957;51.412;6.724;2022-09-09T16:51:33;4.83;;;1.57;;
9836;SDS011;4957;51.412;6.724;2022-09-09T16:54:04;3.70;;;1.40;;
9836;SDS011;4957;51.412;6.724;2022-09-09T16:56:32;5.33;;;1.80;;
9836;SDS011;4957;51.412;6.724;2022-09-09T16:59:08;4.60;;;1.73;;
9836;SDS011;4957;51.412;6.724;2022-09-09T17:01:37;4.27;;;1.40;;
9836;SDS011;4957;51.412;6.724;2022-09-09T17:04:09;4.13;;;1.40;;
9836;SDS011;4957;51.412;6.724;2022-09-09T17:06:38;6.90;;;1.70;;
9836;SDS011;4957;51.412;6.724;2022-09-09T17:09:07;3.33;;;1.30;;
9836;SDS011;4957;51.412;6.724;2022-09-09T17:11:35;4.90;;;1.70;;
9836;SDS011;4957;51.412;6.724;2022-09-09T17:14:02;4.30;;;1.77;;
9836;SDS011;4957;51.412;6.724;2022-09-09T17:16:30;5.53;;;1.87;;
9836;SDS011;4957;51.412;6.724;2022-09-09T17:18:58;4.00;;;1.50;;
9836;SDS011;4957;51.412;6.724;2022-09-09T17:21:26;5.00;;;1.77;;
9836;SDS011;4957;51.412;6.724;2022-09-09T17:23:53;4.37;;;2.13;;
9836;SDS011;4957;51.412;6.724;2022-09-09T17:26:20;5.63;;;2.20;;
9836;SDS011;4957;51.412;6.724;2022-09-09T17:28:47;3.73;;;2.00;;
9836;SDS011;4957;51.412;6.724;2022-09-09T17:31:14;7.13;;;1.97;;
9836;SDS011;4957;51.412;6.724;2022-09-09T17:33:43;3.67;;;1.60;;
9836;SDS011;4957;51.412;6.724;2022-09-09T17:36:12;5.23;;;1.97;;
9836;SDS011;4957;51.412;6.724;2022-09-09T17:38:40;3.07;;;1.40;;
9836;SDS011;4957;51.412;6.724;2022-09-09T17:41:09;4.00;;;1.80;;
9836;SDS011;4957;51.412;6.724;2022-09-09T17:43:36;3.73;;;1.73;;
9836;SDS011;4957;51.412;6.724;2022-09-09T17:47:03;3.77;;;1.70;;
9836;SDS011;4957;51.412;6.724;2022-09-09T17:49:00;3.83;;;1.80;;
9836;SDS011;4957;51.412;6.724;2022-09-09T17:51:28;4.10;;;1.80;;
9836;SDS011;4957;51.412;6.724;2022-09-09T17:53:57;3.00;;;1.53;;